Time;durP1;ratioP1;P1;durP2;ratioP2;P2;SDS_P1;SDS_P2;PMS_P1;PMS_P2;Temp;Humidity;BMP_temperature;BMP_pressure;BME280_temperature;BME280_humidity;BME280_pressure;Samples;Min_cycle;Max_cycle;Signal;HPM_P1;HPM_P2
2023/01/24 00:01:03;;;;;;;14.63;10.05;;;;;;;2.81;47.87;103270.03;5037594;28;20111;-80
2023/01/24 00:03:33;;;;;;;13.02;8.75;;;;;;;2.81;47.89;103264.63;5036718;28;20393;-78
2023/01/24 00:06:01;;;;;;;14.52;9.43;;;;;;;2.78;47.98;103274.59;5012392;28;20034;-80
2023/01/24 00:08:28;;;;;;;13.95;9.43;;;;;;;2.78;47.86;103274.59;5022118;28;20479;-81
2023/01/24 00:11:00;;;;;;;14.70;9.65;;;;;;;2.79;47.92;103271.84;5021647;28;20497;-81
2023/01/24 00:13:29;;;;;;;14.40;8.73;;;;;;;2.78;47.93;103274.59;5034664;28;20044;-81
2023/01/24 00:16:07;;;;;;;13.20;9.13;;;;;;;2.80;47.91;103270.06;5026551;28;20104;-80
2023/01/24 00:18:37;;;;;;;16.10;10.20;;;;;;;2.72;47.96;103267.47;5016656;28;20072;-80
2023/01/24 00:21:08;;;;;;;12.90;9.05;;;;;;;2.73;48.03;103276.47;5020460;28;20112;-81
2023/01/24 00:23:37;;;;;;;13.65;8.55;;;;;;;2.72;48.07;103270.19;5016358;28;20465;-81
2023/01/24 00:26:05;;;;;;;13.40;8.93;;;;;;;2.74;47.93;103279.13;5021951;28;20037;-81
2023/01/24 00:28:33;;;;;;;13.88;9.00;;;;;;;2.71;48.07;103273.78;5028122;28;20047;-81
2023/01/24 00:31:01;;;;;;;12.68;8.55;;;;;;;2.74;48.05;103270.16;5021976;28;20385;-81
2023/01/24 00:33:30;;;;;;;12.38;8.70;;;;;;;2.73;48.09;103281.88;5020984;28;20076;-82
2023/01/24 00:36:00;;;;;;;11.20;8.13;;;;;;;2.74;48.05;103284.53;5019887;28;20042;-81
2023/01/24 00:38:29;;;;;;;13.63;8.98;;;;;;;2.68;48.17;103278.34;5029469;28;20042;-82
2023/01/24 00:40:57;;;;;;;13.52;9.05;;;;;;;2.67;48.17;103279.25;5040198;28;20132;-82
2023/01/24 00:43:26;;;;;;;13.63;8.90;;;;;;;2.65;48.10;103279.31;5023618;28;20045;-82
2023/01/24 00:45:54;;;;;;;12.38;8.68;;;;;;;2.67;48.03;103268.44;5015367;28;20069;-81
2023/01/24 00:48:23;;;;;;;14.82;9.25;;;;;;;2.61;48.19;103270.34;5018847;28;20095;-79
2023/01/24 00:50:51;;;;;;;12.88;9.00;;;;;;;2.66;48.17;103275.66;5018050;28;20042;-81
2023/01/24 00:53:20;;;;;;;11.48;8.15;;;;;;;2.68;48.08;103270.22;5041032;28;20111;-81
2023/01/24 00:55:48;;;;;;;11.77;7.72;;;;;;;2.68;47.85;103275.63;5022211;28;20587;-81
2023/01/24 00:58:17;;;;;;;10.75;7.35;;;;;;;2.69;47.66;103272.91;5029245;28;20069;-80
2023/01/24 01:00:45;;;;;;;12.05;7.95;;;;;;;2.66;48.03;103261.28;5040029;28;20638;-81
2023/01/24 01:03:16;;;;;;;12.00;8.13;;;;;;;2.68;47.97;103265.72;5016071;28;20088;-81
2023/01/24 01:05:44;;;;;;;13.00;8.15;;;;;;;2.64;48.24;103264.91;5039324;28;20095;-81
2023/01/24 01:08:13;;;;;;;11.77;8.15;;;;;;;2.67;48.10;103268.44;5039004;28;20048;-81
2023/01/24 01:10:42;;;;;;;12.25;8.07;;;;;;;2.66;48.15;103272.09;5013685;28;20073;-81
2023/01/24 01:13:12;;;;;;;10.82;7.35;;;;;;;2.68;47.85;103264.81;5028034;28;20134;-81
2023/01/24 01:15:40;;;;;;;10.07;7.10;;;;;;;2.68;47.95;103262.13;5013365;28;20136;-81
2023/01/24 01:18:08;;;;;;;9.13;6.55;;;;;;;2.69;47.77;103264.81;5046288;28;20467;-81
2023/01/24 01:20:36;;;;;;;10.13;6.90;;;;;;;2.70;47.85;103269.31;5021630;28;20041;-81
2023/01/24 01:23:07;;;;;;;9.55;7.05;;;;;;;2.67;47.73;103272.03;5037970;28;20478;-79
2023/01/24 01:25:39;;;;;;;11.60;7.07;;;;;;;2.71;47.44;103270.19;5030551;28;20490;-82
2023/01/24 01:28:08;;;;;;;9.57;6.25;;;;;;;2.70;47.90;103274.72;5019223;28;20477;-82
2023/01/24 01:30:36;;;;;;;10.60;6.53;;;;;;;2.69;47.94;103270.22;5009814;28;20045;-81
2023/01/24 01:33:04;;;;;;;11.30;7.50;;;;;;;2.64;47.90;103274.81;5023247;28;20519;-80
2023/01/24 01:35:32;;;;;;;11.98;7.80;;;;;;;2.60;48.00;103276.66;5020326;28;20049;-79
2023/01/24 01:38:00;;;;;;;11.65;7.95;;;;;;;2.59;47.89;103273.97;5017325;28;20069;-81
2023/01/24 01:40:27;;;;;;;10.60;7.10;;;;;;;2.56;48.06;103276.75;5037150;28;20068;-80
2023/01/24 01:42:56;;;;;;;9.77;6.40;;;;;;;2.61;47.80;103283.88;5031043;28;20100;-81
2023/01/24 01:45:42;;;;;;;11.15;7.38;;;;;;;2.56;47.61;103284.88;5049343;28;20484;-80
2023/01/24 01:48:19;;;;;;;9.15;6.20;;;;;;;2.57;47.79;103284.84;5022155;28;20065;-80
2023/01/24 01:50:53;;;;;;;10.02;6.85;;;;;;;2.52;47.97;103281.28;5023536;28;20037;-81
2023/01/24 01:53:24;;;;;;;11.55;7.40;;;;;;;2.52;47.73;103285.81;5034176;28;20042;-82
2023/01/24 01:55:58;;;;;;;9.48;6.20;;;;;;;2.55;47.57;103277.66;5025924;28;20037;-81
2023/01/24 01:58:26;;;;;;;10.20;6.22;;;;;;;2.55;47.71;103289.38;5016634;28;20072;-82
2023/01/24 02:00:55;;;;;;;8.70;5.95;;;;;;;2.56;47.68;103282.16;5015310;28;20037;-81
2023/01/24 02:03:39;;;;;;;8.93;5.95;;;;;;;2.58;47.33;103292.00;5036440;28;20045;-81
2023/01/24 02:06:09;;;;;;;;;;;;;;;2.34;48.13;103283.38;5028121;28;20060;-79
2023/01/24 02:08:37;;;;;;;7.57;4.88;;;;;;;2.53;47.80;103285.78;5033100;28;19925;-81
2023/01/24 02:16:01;;;;;;;8.55;5.32;;;;;;;2.58;47.71;103286.59;5011409;28;20456;-81
2023/01/24 02:16:40;;;;;;;8.60;5.47;;;;;;;2.59;47.73;103284.78;5014975;28;20045;-80
2023/01/24 02:19:16;;;;;;;9.57;6.47;;;;;;;2.58;47.54;103283.91;5022350;28;20053;-81
2023/01/24 02:21:46;;;;;;;10.85;7.70;;;;;;;2.52;47.85;103289.41;5033366;28;20589;-79
2023/01/24 02:24:20;;;;;;;11.02;7.40;;;;;;;2.52;47.52;103285.81;5053125;28;20095;-81
2023/01/24 02:26:49;;;;;;;9.70;6.15;;;;;;;2.56;47.68;103276.75;5026740;28;20095;-81
2023/01/24 02:29:18;;;;;;;8.82;5.88;;;;;;;2.55;47.76;103274.97;5029725;28;20125;-79
2023/01/24 02:31:55;;;;;;;8.82;6.20;;;;;;;2.59;47.31;103272.16;5022481;28;21123;-82
2023/01/24 02:34:24;;;;;;;9.30;5.90;;;;;;;2.58;47.62;103264.97;5038865;28;20507;-79
2023/01/24 02:36:55;;;;;;;8.68;5.47;;;;;;;2.60;47.59;103263.16;5014427;28;20034;-81
2023/01/24 02:39:27;;;;;;;8.75;5.63;;;;;;;2.62;47.53;103264.03;5015017;28;20509;-82
2023/01/24 02:42:02;;;;;;;8.15;5.00;;;;;;;2.64;47.33;103264.91;5023637;28;20065;-82
2023/01/24 02:44:38;;;;;;;9.38;5.15;;;;;;;2.66;47.33;103270.25;5021998;28;20052;-79
2023/01/24 02:47:07;;;;;;;9.30;5.53;;;;;;;2.64;47.62;103277.53;5012089;28;20042;-81
2023/01/24 02:49:34;;;;;;;8.82;5.75;;;;;;;2.61;47.60;103267.63;5031546;28;20411;-80
2023/01/24 02:54:48;;;;;;;7.45;5.20;;;;;;;2.61;47.54;103267.63;5041991;28;20056;-82
2023/01/24 03:00:03;;;;;;;8.07;5.35;;;;;;;2.53;47.43;103257.88;5018223;28;20052;-80
2023/01/24 03:02:31;;;;;;;7.45;5.35;;;;;;;2.56;47.41;103260.53;5026367;28;20075;-82
2023/01/24 03:04:59;;;;;;;7.47;5.10;;;;;;;2.57;47.33;103263.22;5022109;28;20095;-82
2023/01/24 03:07:41;;;;;;;8.02;5.40;;;;;;;2.58;47.34;103261.38;5016426;28;20083;-82
2023/01/24 03:10:11;;;;;;;7.38;4.82;;;;;;;2.56;47.46;103261.44;5021830;28;20137;-82
2023/01/24 03:34:49;;;;;;;7.05;4.90;;;;;;;2.60;47.29;103254.13;5038285;28;20096;-81
2023/01/24 03:40:08;;;;;;;7.18;4.63;;;;;;;2.63;47.29;103254.09;5033387;28;20464;-81
2023/01/24 03:42:46;;;;;;;6.50;4.38;;;;;;;2.64;47.22;103250.47;5028155;28;20501;-82
2023/01/24 03:45:19;;;;;;;6.72;4.22;;;;;;;2.68;47.17;103256.72;5050502;28;20500;-81
2023/01/24 03:48:04;;;;;;;6.78;4.38;;;;;;;2.67;47.15;103257.63;5035894;28;20105;-82
2023/01/24 03:53:27;;;;;;;6.15;4.45;;;;;;;2.67;47.12;103260.34;5033596;28;20041;-80
2023/01/24 03:55:57;;;;;;;6.35;4.20;;;;;;;2.68;47.06;103254.91;5016812;28;20041;-81
2023/01/24 03:58:26;;;;;;;6.43;4.22;;;;;;;2.69;46.91;103255.81;5020030;28;20048;-82
2023/01/24 04:00:56;;;;;;;6.03;3.97;;;;;;;2.66;46.67;103255.88;5028642;28;20044;-82
2023/01/24 04:03:44;;;;;;;6.80;3.75;;;;;;;2.67;46.97;103255.81;5037285;28;20095;-81
2023/01/24 04:06:11;;;;;;;6.00;3.72;;;;;;;2.68;46.63;103260.31;5030175;28;20053;-81
2023/01/24 04:08:39;;;;;;;6.30;4.28;;;;;;;2.63;46.98;103252.28;5026832;28;20455;-81
2023/01/24 04:11:08;;;;;;;6.93;4.47;;;;;;;2.66;46.93;103255.88;5031528;28;20045;-81
2023/01/24 04:13:35;;;;;;;6.35;4.00;;;;;;;2.67;46.93;103260.34;5039797;28;20108;-82
2023/01/24 04:16:07;;;;;;;6.25;4.18;;;;;;;2.69;46.68;103253.09;5030037;28;20460;-81
2023/01/24 04:18:49;;;;;;;6.03;4.00;;;;;;;2.67;46.73;103253.13;5028607;28;20514;-81
2023/01/24 04:21:19;;;;;;;5.75;3.50;;;;;;;2.68;46.86;103256.72;5040689;28;20135;-80
2023/01/24 04:23:47;;;;;;;6.57;3.88;;;;;;;2.69;46.99;103262.09;5037713;28;20045;-81
2023/01/24 04:26:15;;;;;;;6.40;3.78;;;;;;;2.70;46.91;103249.47;5006126;28;20041;-81
2023/01/24 04:28:44;;;;;;;6.82;4.10;;;;;;;2.71;46.92;103245.88;5010494;28;20153;-80
2023/01/24 04:31:13;;;;;;;6.97;4.63;;;;;;;2.70;46.85;103252.19;5036645;28;20490;-81
2023/01/24 04:34:01;;;;;;;5.93;3.95;;;;;;;2.71;46.84;103245.88;5043809;28;20043;-80
2023/01/24 04:36:30;;;;;;;4.82;3.42;;;;;;;2.72;46.84;103248.53;5050444;28;20090;-81
2023/01/24 04:38:59;;;;;;;5.93;3.85;;;;;;;2.73;46.82;103244.03;5032710;28;20061;-81
2023/01/24 04:41:33;;;;;;;5.70;4.07;;;;;;;2.73;46.83;103249.44;5018453;28;20049;-82
2023/01/24 04:44:01;;;;;;;6.43;3.92;;;;;;;2.74;46.75;103252.09;5018352;28;20049;-79
2023/01/24 04:46:30;;;;;;;5.95;3.92;;;;;;;2.74;46.66;103246.69;5025800;28;20049;-80
2023/01/24 04:49:00;;;;;;;6.15;3.95;;;;;;;2.75;46.59;103250.28;5015422;28;20046;-79
2023/01/24 04:51:37;;;;;;;5.68;3.83;;;;;;;2.73;46.76;103254.84;5033259;28;20042;-80
2023/01/24 04:54:08;;;;;;;6.18;3.67;;;;;;;2.70;46.79;103247.66;5009634;28;20491;-79
2023/01/24 04:56:37;;;;;;;6.10;3.80;;;;;;;2.73;46.54;103254.84;5014736;28;20038;-80
2023/01/24 04:59:06;;;;;;;6.15;3.83;;;;;;;2.74;46.84;103262.03;5016113;28;20033;-79
2023/01/24 05:01:37;;;;;;;5.65;3.47;;;;;;;2.74;46.67;103256.63;5016176;28;20456;-79
2023/01/24 05:04:12;;;;;;;7.57;4.28;;;;;;;2.75;47.05;103261.09;5014792;28;20049;-79
2023/01/24 05:06:40;;;;;;;6.38;3.85;;;;;;;2.75;46.83;103263.81;5021736;28;20048;-79
2023/01/24 05:09:08;;;;;;;5.93;3.97;;;;;;;2.76;46.71;103262.88;5007875;28;20052;-79
2023/01/24 05:11:52;;;;;;;5.30;3.50;;;;;;;2.75;46.63;103267.41;5018975;28;20456;-79
2023/01/24 05:14:20;;;;;;;6.57;3.80;;;;;;;2.76;46.70;103263.78;5025397;28;20084;-81
2023/01/24 05:16:49;;;;;;;5.55;3.80;;;;;;;2.80;46.69;103264.63;5016612;28;20092;-79
2023/01/24 05:19:17;;;;;;;6.43;4.35;;;;;;;2.78;46.95;103259.25;5020683;28;20460;-79
2023/01/24 05:21:45;;;;;;;7.03;4.10;;;;;;;2.80;46.74;103261.94;5027672;28;20033;-79
2023/01/24 05:24:14;;;;;;;7.18;4.20;;;;;;;2.78;46.48;103251.13;5015490;28;20065;-80
2023/01/24 05:26:43;;;;;;;6.93;4.15;;;;;;;2.80;46.77;103267.34;5021776;28;20120;-79
2023/01/24 05:29:13;;;;;;;5.85;4.18;;;;;;;2.79;46.52;103261.03;5033406;28;20132;-79
2023/01/24 05:31:41;;;;;;;5.88;4.00;;;;;;;2.80;46.59;103264.63;5018055;28;20094;-80
2023/01/24 05:34:10;;;;;;;6.25;4.22;;;;;;;2.81;46.58;103267.31;5017620;28;20058;-78
2023/01/24 05:36:38;;;;;;;6.80;4.03;;;;;;;2.79;46.55;103274.56;5008951;28;20048;-81
2023/01/24 05:39:09;;;;;;;6.60;4.47;;;;;;;2.80;46.64;103275.47;5018711;28;20464;-80
2023/01/24 05:41:37;;;;;;;5.68;4.05;;;;;;;2.80;46.64;103278.16;5018098;28;20387;-79
2023/01/24 05:44:05;;;;;;;6.68;4.40;;;;;;;2.80;46.60;103273.66;5015539;28;20137;-79
2023/01/24 05:46:38;;;;;;;7.13;4.68;;;;;;;2.80;46.69;103275.47;5034913;28;20047;-78
2023/01/24 05:49:15;;;;;;;6.07;4.13;;;;;;;2.82;46.61;103281.75;5022706;28;20084;-78
2023/01/24 05:51:45;;;;;;;7.07;4.53;;;;;;;2.80;46.75;103284.47;5019021;28;20503;-79
2023/01/24 05:54:17;;;;;;;7.65;4.35;;;;;;;2.81;46.51;103282.66;5043114;23;20075;-69
2023/01/24 05:56:55;;;;;;;7.70;4.38;;;;;;;2.82;46.54;103284.44;5028040;28;20187;-68
2023/01/24 05:59:24;;;;;;;8.05;4.78;;;;;;;2.83;46.45;103291.59;5010673;28;20572;-69
2023/01/24 06:01:52;;;;;;;8.00;4.82;;;;;;;2.83;46.16;103288.91;5038679;28;20394;-69
2023/01/24 06:04:22;;;;;;;7.43;4.82;;;;;;;2.85;46.41;103296.09;5025990;28;20510;-69
2023/01/24 06:06:50;;;;;;;6.40;4.25;;;;;;;2.82;46.42;103297.97;5046519;28;20043;-69
2023/01/24 06:09:18;;;;;;;7.10;4.70;;;;;;;2.82;46.44;103306.97;5049036;28;20124;-69
2023/01/24 06:11:46;;;;;;;8.43;5.10;;;;;;;2.81;46.55;103302.47;5048293;28;20476;-69
2023/01/24 06:14:18;;;;;;;7.32;4.70;;;;;;;2.81;46.44;103305.19;5027539;28;20120;-69
2023/01/24 06:16:48;;;;;;;7.43;4.50;;;;;;;2.80;46.48;103303.41;5029674;28;20037;-69
2023/01/24 06:19:18;;;;;;;6.88;4.45;;;;;;;2.79;46.24;103312.41;5046864;28;20405;-69
2023/01/24 06:21:50;;;;;;;7.63;4.78;;;;;;;2.80;46.27;103308.81;5029911;28;20048;-69
2023/01/24 06:24:25;;;;;;;7.32;4.68;;;;;;;2.81;46.34;103317.81;5045241;28;20162;-68
2023/01/24 06:27:00;;;;;;;8.27;4.75;;;;;;;2.80;46.40;103314.22;5039904;28;20075;-69
2023/01/24 06:29:29;;;;;;;7.75;5.32;;;;;;;2.80;46.50;103319.63;5046983;28;20041;-69
2023/01/24 06:32:07;;;;;;;8.18;5.15;;;;;;;2.79;46.00;103320.53;5048336;28;20112;-69
2023/01/24 06:35:00;;;;;;;7.68;5.40;;;;;;;2.76;45.60;103323.28;5046779;28;20134;-69
2023/01/24 06:37:38;;;;;;;5.82;3.97;;;;;;;2.68;46.09;103325.19;5046041;28;20791;-68
2023/01/24 06:40:09;;;;;;;9.57;5.97;;;;;;;2.75;46.34;103326.00;5061023;28;20052;-69
2023/01/24 06:42:38;;;;;;;8.45;5.95;;;;;;;2.71;46.31;103321.56;5012931;28;20077;-68
2023/01/24 06:45:07;;;;;;;9.40;6.15;;;;;;;2.71;46.36;103324.28;5046103;28;20041;-69
2023/01/24 06:47:35;;;;;;;8.50;5.63;;;;;;;2.69;46.42;103324.28;5050661;28;20061;-71
2023/01/24 06:50:06;;;;;;;9.82;6.03;;;;;;;2.70;46.44;103322.47;5045722;28;20048;-69
2023/01/24 06:52:35;;;;;;;8.55;5.55;;;;;;;2.70;46.24;103322.47;5048163;28;20090;-69
2023/01/24 06:55:03;;;;;;;10.63;5.97;;;;;;;2.68;46.39;103332.41;5045240;28;20413;-69
2023/01/24 06:57:31;;;;;;;8.68;5.65;;;;;;;2.67;46.34;103333.34;5044455;28;20044;-69
2023/01/24 06:59:59;;;;;;;8.88;6.18;;;;;;;2.64;46.43;103334.31;5045366;28;20029;-69
2023/01/24 07:02:27;;;;;;;9.52;6.13;;;;;;;2.63;46.40;103338.81;5043257;28;20041;-69
2023/01/24 07:04:55;;;;;;;9.32;6.55;;;;;;;2.64;46.33;103342.41;5045635;28;20544;-69
2023/01/24 07:07:23;;;;;;;10.20;6.40;;;;;;;2.60;46.39;103337.94;5046780;28;21170;-69
2023/01/24 07:09:52;;;;;;;9.38;6.13;;;;;;;2.59;46.28;103345.16;5046540;28;20037;-69
2023/01/24 07:12:20;;;;;;;10.32;6.60;;;;;;;2.58;46.44;103348.78;5045826;28;20097;-69
2023/01/24 07:14:48;;;;;;;10.07;6.72;;;;;;;2.54;46.44;103343.47;5042543;28;20041;-70
2023/01/24 07:17:17;;;;;;;10.60;6.50;;;;;;;2.53;46.42;103347.97;5025616;28;20069;-69
2023/01/24 07:19:45;;;;;;;11.57;6.88;;;;;;;2.54;46.42;103354.25;5046103;28;20044;-67
2023/01/24 07:22:14;;;;;;;8.98;6.00;;;;;;;2.52;46.52;103353.38;5046409;28;20048;-67
2023/01/24 07:24:44;;;;;;;9.43;6.53;;;;;;;2.49;46.55;103354.34;5028485;28;20049;-64
2023/01/24 07:27:14;;;;;;;9.85;6.45;;;;;;;2.48;46.39;103360.66;5029791;28;20073;-65
2023/01/24 07:29:43;;;;;;;10.98;7.25;;;;;;;2.42;46.54;103359.81;5047896;28;20048;-67
2023/01/24 07:32:11;;;;;;;9.70;6.78;;;;;;;2.41;46.59;103375.16;5046893;28;20056;-66
2023/01/24 07:34:39;;;;;;;9.82;6.95;;;;;;;2.41;46.46;103372.44;5043149;28;20502;-65
2023/01/24 07:37:08;;;;;;;9.60;6.53;;;;;;;2.40;46.63;103372.50;5048897;28;20049;-64
2023/01/24 07:39:36;;;;;;;11.10;7.13;;;;;;;2.34;46.62;103368.03;5036438;28;20041;-65
2023/01/24 07:42:04;;;;;;;11.00;7.20;;;;;;;2.35;46.58;103382.44;5051134;28;20107;-67
2023/01/24 07:44:34;;;;;;;10.23;6.82;;;;;;;2.35;46.51;103380.66;5035371;28;20049;-67
2023/01/24 07:47:02;;;;;;;10.52;6.40;;;;;;;2.35;46.51;103385.16;5049501;28;20041;-67
2023/01/24 07:49:30;;;;;;;9.77;6.60;;;;;;;2.33;46.79;103381.59;5046367;28;20045;-66
2023/01/24 07:51:57;;;;;;;10.50;6.80;;;;;;;2.34;46.96;103386.06;5051979;28;20497;-67
2023/01/24 07:54:25;;;;;;;9.93;6.88;;;;;;;2.31;46.69;103376.22;5050091;28;20519;-65
2023/01/24 07:56:53;;;;;;;11.93;7.53;;;;;;;2.32;46.49;103377.09;5050963;28;20742;-66
2023/01/24 07:59:21;;;;;;;9.88;6.78;;;;;;;2.33;46.67;103387.00;5050268;28;20053;-67
2023/01/24 08:02:06;;;;;;;11.27;7.43;;;;;;;2.29;46.73;103387.94;5051141;28;20134;-67
2023/01/24 08:04:34;;;;;;;11.65;7.20;;;;;;;2.31;46.77;103383.41;5050521;28;20563;-65
2023/01/24 08:09:53;;;;;;;9.98;6.50;;;;;;;2.30;46.83;103392.44;5037777;28;20045;-67
2023/01/24 08:12:21;;;;;;;10.10;6.88;;;;;;;2.34;46.74;103391.47;5049229;28;20047;-67
2023/01/24 08:14:49;;;;;;;9.80;6.50;;;;;;;2.36;46.64;103393.25;5050024;28;20060;-67
2023/01/24 08:17:19;;;;;;;8.85;5.95;;;;;;;2.39;46.53;103393.22;5049632;28;20060;-68
2023/01/24 08:19:47;;;;;;;10.45;6.13;;;;;;;2.40;46.65;103389.59;5048244;28;20057;-67
2023/01/24 08:22:24;;;;;;;10.05;6.30;;;;;;;2.41;46.60;103394.06;5033675;28;20139;-68
2023/01/24 08:24:52;;;;;;;9.05;6.05;;;;;;;2.43;46.68;103396.75;5050047;28;20049;-68
2023/01/24 08:27:20;;;;;;;9.55;6.43;;;;;;;2.46;46.81;103399.44;5041803;28;20045;-68
2023/01/24 08:29:48;;;;;;;9.70;6.45;;;;;;;2.46;46.45;103391.31;5035234;28;20059;-68
2023/01/24 08:32:17;;;;;;;8.73;6.05;;;;;;;2.48;46.34;103395.81;5051199;28;20084;-69
2023/01/24 08:34:45;;;;;;;9.98;5.95;;;;;;;2.50;46.29;103399.34;5051083;28;20052;-69
2023/01/24 08:37:13;;;;;;;11.63;7.13;;;;;;;2.48;46.37;103408.41;5048198;28;20555;-68
2023/01/24 08:39:41;;;;;;;10.85;6.80;;;;;;;2.49;46.50;103394.88;5046782;28;20453;-67
2023/01/24 08:42:10;;;;;;;10.63;6.93;;;;;;;2.49;46.54;103404.81;5050476;28;20059;-67
2023/01/24 08:44:38;;;;;;;10.07;6.40;;;;;;;2.50;46.24;103410.16;5050533;28;20052;-68
2023/01/24 08:47:06;;;;;;;10.05;6.53;;;;;;;2.52;46.34;103412.84;5048700;28;20033;-69
2023/01/24 08:49:35;;;;;;;10.38;6.78;;;;;;;2.53;46.31;103417.34;5049347;28;20045;-68
2023/01/24 08:52:03;;;;;;;9.60;6.57;;;;;;;2.54;46.36;103421.84;5050762;28;20108;-68
2023/01/24 08:54:32;;;;;;;8.30;5.72;;;;;;;2.57;46.39;103432.63;5046812;28;20049;-68
2023/01/24 08:57:00;;;;;;;11.13;7.20;;;;;;;2.54;46.30;103424.56;5032648;28;20053;-68
2023/01/24 08:59:28;;;;;;;12.43;7.70;;;;;;;2.52;46.35;103423.66;5049601;28;20094;-68
2023/01/24 09:01:56;;;;;;;10.02;7.10;;;;;;;2.54;46.33;103432.66;5044294;28;20044;-66
2023/01/24 09:04:26;;;;;;;11.02;6.95;;;;;;;2.54;46.42;103428.16;5045276;28;20087;-67
2023/01/24 09:06:55;;;;;;;10.15;7.43;;;;;;;2.53;46.25;103429.06;5033944;28;20076;-67
2023/01/24 09:09:24;;;;;;;10.95;7.03;;;;;;;2.50;46.30;103423.69;5047777;28;20501;-68
2023/01/24 09:11:53;;;;;;;11.27;7.32;;;;;;;2.50;46.37;103429.09;5036967;28;20269;-67
2023/01/24 09:14:20;;;;;;;11.10;7.85;;;;;;;2.48;46.31;103430.94;5010912;28;20458;-68
2023/01/24 09:16:48;;;;;;;10.82;7.32;;;;;;;2.51;46.45;103427.28;5048783;28;20037;-67
2023/01/24 09:19:16;;;;;;;10.70;7.35;;;;;;;2.51;46.37;103428.19;5048463;28;20071;-66
2023/01/24 09:21:47;;;;;;;10.73;7.28;;;;;;;2.51;46.63;103432.69;5049699;28;20225;-69
2023/01/24 09:24:16;;;;;;;11.73;7.53;;;;;;;2.51;46.37;103433.59;5049830;28;20045;-68
2023/01/24 09:26:44;;;;;;;10.60;7.15;;;;;;;2.52;46.46;103434.47;5050101;28;20128;-68
2023/01/24 09:29:12;;;;;;;12.52;8.38;;;;;;;2.46;46.56;103439.97;5033834;28;20364;-67
2023/01/24 09:31:40;;;;;;;12.68;8.75;;;;;;;2.42;46.44;103441.81;5037954;28;20045;-68
2023/01/24 09:34:08;;;;;;;12.63;7.95;;;;;;;2.43;46.44;103430.09;5049555;28;20125;-68
2023/01/24 09:36:36;;;;;;;12.75;9.05;;;;;;;2.40;46.53;103440.97;5049928;28;20488;-69
2023/01/24 09:39:04;;;;;;;11.50;8.68;;;;;;;2.35;46.43;103448.19;5046153;28;20037;-68
2023/01/24 09:41:45;;;;;;;11.70;8.35;;;;;;;2.36;46.15;103441.00;5040306;28;20563;-68
2023/01/24 09:44:28;;;;;;;12.98;8.00;;;;;;;2.38;46.21;103450.88;5034275;28;20084;-68
2023/01/24 09:46:57;;;;;;;12.48;8.07;;;;;;;2.34;46.58;103453.63;5049749;28;20045;-68
2023/01/24 09:49:35;;;;;;;11.55;7.85;;;;;;;2.38;46.18;103445.47;5010954;28;20382;-69
2023/01/24 09:52:08;;;;;;;11.90;7.03;;;;;;;2.38;46.43;103445.47;5045411;28;20040;-67
2023/01/24 09:54:38;;;;;;;;;;;;;;;2.16;46.66;103455.66;5049090;28;20106;-68
2023/01/24 09:57:14;;;;;;;9.65;6.45;;;;;;;2.40;46.27;103445.47;5031576;28;20404;-68
2023/01/24 09:59:49;;;;;;;11.43;6.65;;;;;;;2.43;46.43;103445.41;5029788;28;20155;-67
2023/01/24 10:02:18;;;;;;;9.73;6.78;;;;;;;2.44;46.55;103448.09;5049120;28;20037;-67
2023/01/24 10:04:48;;;;;;;11.20;7.18;;;;;;;2.47;46.45;103441.78;5048702;28;20064;-67
2023/01/24 10:07:50;;;;;;;10.07;6.72;;;;;;;2.49;46.02;103450.75;5039720;28;20050;-66
2023/01/24 10:10:35;;;;;;;11.73;7.15;;;;;;;2.51;45.96;103449.81;5012194;28;20049;-66
2023/01/24 10:13:17;;;;;;;12.82;8.32;;;;;;;2.52;46.18;103445.28;5028756;28;20034;-67
2023/01/24 10:15:52;;;;;;;10.02;7.03;;;;;;;2.54;46.32;103447.06;5050846;28;20049;-68
2023/01/24 10:18:50;;;;;;;12.32;8.13;;;;;;;2.54;46.10;103446.19;5048440;28;20071;-68
2023/01/24 10:21:31;;;;;;;10.27;7.55;;;;;;;2.55;46.09;103448.88;5032192;28;20050;-67
2023/01/24 10:24:02;;;;;;;10.57;7.15;;;;;;;2.58;46.44;103443.41;5037321;28;20519;-68
2023/01/24 10:26:38;;;;;;;12.32;7.35;;;;;;;2.60;46.13;103448.78;5046574;28;20151;-67
2023/01/24 10:29:15;;;;;;;12.50;7.50;;;;;;;2.61;46.12;103445.19;5045720;28;20083;-67
2023/01/24 10:31:50;;;;;;;11.60;7.90;;;;;;;2.60;46.24;103446.09;5028853;28;20118;-67
2023/01/24 10:34:26;;;;;;;12.57;8.13;;;;;;;2.62;46.42;103452.38;5046064;28;20059;-68
2023/01/24 10:36:59;;;;;;;10.27;6.55;;;;;;;2.64;46.38;103450.56;5046296;28;20037;-68
2023/01/24 10:39:27;;;;;;;10.77;7.22;;;;;;;2.64;46.57;103443.34;5045215;28;20136;-67
2023/01/24 10:41:55;;;;;;;10.45;6.93;;;;;;;2.68;46.38;103448.69;5047561;28;20045;-68
2023/01/24 10:44:27;;;;;;;10.60;7.22;;;;;;;2.69;46.15;103453.19;5044315;28;20076;-68
2023/01/24 10:47:14;;;;;;;11.98;7.47;;;;;;;2.70;46.09;103436.06;5047490;28;20521;-69
2023/01/24 10:49:48;;;;;;;9.63;6.68;;;;;;;2.74;46.31;103443.22;5044857;28;20049;-67
2023/01/24 10:52:18;;;;;;;9.88;6.50;;;;;;;2.77;46.29;103451.28;5047612;28;20524;-67
2023/01/24 10:54:52;;;;;;;9.20;6.15;;;;;;;2.80;46.13;103438.63;5027549;28;20057;-68
2023/01/24 10:57:49;;;;;;;10.85;6.85;;;;;;;2.81;45.72;103445.81;5046256;28;20083;-67
2023/01/24 11:00:30;;;;;;;8.27;5.95;;;;;;;2.84;45.67;103442.16;5037092;28;20083;-67
2023/01/24 11:03:00;;;;;;;7.90;5.85;;;;;;;2.86;46.18;103445.75;5046200;28;20394;-67
2023/01/24 11:05:38;;;;;;;9.60;6.05;;;;;;;2.89;45.89;103443.91;5046223;28;20098;-68
2023/01/24 11:08:06;;;;;;;9.00;5.90;;;;;;;2.89;46.20;103441.19;5044181;28;20115;-68
2023/01/24 11:10:37;;;;;;;9.55;6.45;;;;;;;2.93;45.84;103440.22;5046583;28;20150;-67
2023/01/24 11:13:35;;;;;;;9.18;6.00;;;;;;;2.94;45.79;103433.88;5027820;28;20618;-68
2023/01/24 11:16:08;;;;;;;9.43;6.32;;;;;;;2.95;45.99;103432.97;5046438;28;20099;-68
2023/01/24 11:18:37;;;;;;;10.30;7.30;;;;;;;2.90;46.14;103423.16;5037322;28;20073;-68
2023/01/24 11:21:07;;;;;;;11.35;7.30;;;;;;;2.98;46.09;103424.81;5027582;28;20065;-68
2023/01/24 11:23:36;;;;;;;11.32;7.18;;;;;;;2.95;46.00;103423.97;5043038;28;20040;-67
2023/01/24 11:26:06;;;;;;;10.75;7.20;;;;;;;2.98;45.91;103422.13;5047120;28;20514;-68
2023/01/24 11:28:36;;;;;;;9.82;6.80;;;;;;;2.99;45.96;103417.56;5044688;28;20053;-68
2023/01/24 11:31:15;;;;;;;10.77;6.97;;;;;;;3.02;45.84;103423.84;5042873;28;20037;-68
2023/01/24 11:34:01;;;;;;;11.13;6.60;;;;;;;3.03;45.40;103427.44;5039802;28;20106;-67
2023/01/24 11:36:40;;;;;;;10.40;7.07;;;;;;;3.05;45.49;103430.13;5035543;28;20490;-67
2023/01/24 11:39:20;;;;;;;16.88;9.32;;;;;;;3.05;45.49;103416.59;5024874;28;20045;-70
2023/01/24 11:41:54;;;;;;;12.45;8.13;;;;;;;3.05;45.58;103419.31;5042321;28;20083;-69
2023/01/24 11:44:53;;;;;;;10.57;6.90;;;;;;;3.05;45.30;103425.63;5041890;28;20045;-67
2023/01/24 11:47:29;;;;;;;11.80;7.57;;;;;;;3.03;45.70;103413.91;5039866;28;20056;-67
2023/01/24 11:50:16;;;;;;;10.70;7.50;;;;;;;3.05;45.24;103411.19;5048659;28;20055;-67
2023/01/24 11:53:09;;;;;;;11.15;7.43;;;;;;;3.01;44.97;103416.66;5038610;28;20044;-67
2023/01/24 11:55:48;;;;;;;11.70;7.78;;;;;;;3.01;45.65;103407.63;5044293;28;20049;-68
2023/01/24 11:58:41;;;;;;;10.10;7.00;;;;;;;3.02;45.10;103410.31;5022324;28;20127;-68
2023/01/24 12:01:15;;;;;;;11.30;7.75;;;;;;;3.00;45.58;103403.13;5039212;28;20728;-68
2023/01/24 12:04:05;;;;;;;10.70;7.13;;;;;;;3.03;45.04;103392.28;5042545;28;20049;-68
2023/01/24 12:06:43;;;;;;;10.60;6.93;;;;;;;3.03;45.41;103394.97;5042393;28;20132;-68
2023/01/24 12:09:20;;;;;;;11.00;6.82;;;;;;;3.05;45.23;103389.56;5042161;28;20136;-67
2023/01/24 12:11:58;;;;;;;11.82;7.55;;;;;;;3.05;45.39;103390.44;5043498;28;20533;-68
2023/01/24 12:14:52;;;;;;;10.20;6.30;;;;;;;3.06;45.25;103381.41;5042402;28;20462;-67
2023/01/24 12:17:44;;;;;;;10.07;7.00;;;;;;;3.05;45.44;103384.16;5041957;28;20049;-67
2023/01/24 12:20:27;;;;;;;10.38;6.63;;;;;;;3.07;45.30;103385.88;5021254;28;20049;-67
2023/01/24 12:23:04;;;;;;;9.20;6.63;;;;;;;3.09;45.81;103383.16;5041679;28;20103;-67
2023/01/24 12:25:35;;;;;;;12.07;6.38;;;;;;;3.09;45.63;103381.34;5046525;28;20135;-67
2023/01/24 12:28:07;;;;;;;9.75;7.13;;;;;;;3.12;45.38;103373.19;5040732;28;20378;-67
2023/01/24 12:30:39;;;;;;;12.02;7.90;;;;;;;3.06;45.59;103370.59;5038211;28;20037;-67